Time;durP1;ratioP1;P1;durP2;ratioP2;P2;SDS_P1;SDS_P2;PMS_P1;PMS_P2;Temp;Humidity;BMP_temperature;BMP_pressure;BME280_temperature;BME280_humidity;BME280_pressure;Samples;Min_cycle;Max_cycle;Signal;HPM_P1;HPM_P2
2022/01/24 00:01:56;;;;;;;22.63;16.45;;;;;;;6.29;100.00;103595.78;5073643;28;20043;-31
2022/01/24 00:04:24;;;;;;;20.25;14.57;;;;;;;6.27;100.00;103595.13;5073549;28;20131;-31
2022/01/24 00:06:52;;;;;;;22.05;15.60;;;;;;;6.25;100.00;103597.25;5072620;28;20402;-31
2022/01/24 00:09:21;;;;;;;22.63;16.73;;;;;;;6.23;100.00;103597.44;5073253;28;20084;-31
2022/01/24 00:12:00;;;;;;;23.80;16.90;;;;;;;6.20;100.00;103604.25;5073100;28;20131;-37
2022/01/24 00:14:47;;;;;;;23.38;16.67;;;;;;;6.18;100.00;103594.44;5072064;28;20058;-39
2022/01/24 00:17:28;;;;;;;23.50;17.05;;;;;;;6.15;100.00;103597.63;5073320;28;20418;-37
2022/01/24 00:28:19;;;;;;;23.83;16.65;;;;;;;6.09;100.00;103590.09;5072088;28;20388;-31
2022/01/24 00:30:49;;;;;;;23.58;16.70;;;;;;;6.09;100.00;103587.34;5071327;28;20048;-30
2022/01/24 00:33:18;;;;;;;21.77;16.00;;;;;;;6.08;100.00;103588.38;5072560;28;20071;-30
2022/01/24 00:35:46;;;;;;;21.52;16.13;;;;;;;6.08;100.00;103591.16;5071704;28;20064;-32
2022/01/24 00:38:14;;;;;;;23.92;17.08;;;;;;;6.07;100.00;103586.69;5072355;28;20047;-32
2022/01/24 00:40:44;;;;;;;19.00;14.32;;;;;;;6.08;100.00;103580.06;5072709;28;20502;-30
2022/01/24 00:43:21;;;;;;;20.00;14.10;;;;;;;6.09;100.00;103587.34;5062929;28;20071;-30
2022/01/24 00:45:58;;;;;;;22.00;15.55;;;;;;;6.09;100.00;103587.34;5071472;28;20041;-30
2022/01/24 00:48:41;;;;;;;24.00;17.15;;;;;;;6.09;100.00;103587.34;5062787;28;20468;-31
2022/01/24 00:54:42;;;;;;;22.48;16.35;;;;;;;6.05;100.00;103588.78;5051639;28;20041;-37
2022/01/24 00:56:52;;;;;;;23.92;17.27;;;;;;;6.02;100.00;103584.50;5068062;28;20032;-38
2022/01/24 00:59:20;;;;;;;23.92;18.40;;;;;;;6.01;100.00;103585.56;5072088;28;20044;-37
2022/01/24 01:01:49;;;;;;;24.95;17.63;;;;;;;6.01;100.00;103591.09;5071755;28;20131;-38
2022/01/24 01:04:18;;;;;;;19.48;13.80;;;;;;;6.00;100.00;103594.06;5071157;28;20044;-30
2022/01/24 01:06:46;;;;;;;24.73;17.17;;;;;;;5.98;100.00;103588.75;5071798;28;20049;-31
2022/01/24 01:20:23;;;;;;;17.85;13.05;;;;;;;5.94;100.00;103586.59;5071674;28;20459;-31
2022/01/24 01:22:50;;;;;;;14.25;10.77;;;;;;;5.95;100.00;103589.16;5069245;28;20036;-32
2022/01/24 01:25:18;;;;;;;17.50;11.82;;;;;;;5.96;100.00;103579.78;5070670;28;20441;-31
2022/01/24 01:27:48;;;;;;;13.60;10.13;;;;;;;5.97;100.00;103575.09;5070670;28;20048;-31
2022/01/24 01:30:19;;;;;;;14.13;10.85;;;;;;;5.97;100.00;103577.88;5071868;28;20445;-31
2022/01/24 01:32:59;;;;;;;13.50;10.37;;;;;;;5.97;100.00;103578.72;5071339;28;20449;-30
2022/01/24 01:35:41;;;;;;;12.73;9.50;;;;;;;5.97;100.00;103584.28;5070703;28;20048;-32
2022/01/24 01:38:35;;;;;;;14.77;11.00;;;;;;;5.97;100.00;103577.88;5070298;28;20491;-33
2022/01/24 01:52:29;;;;;;;17.17;11.32;;;;;;;5.88;100.00;103566.94;5031530;28;20045;-32
2022/01/24 01:55:11;;;;;;;18.50;13.15;;;;;;;5.86;100.00;103560.69;5071463;28;20044;-31
2022/01/24 01:57:39;;;;;;;17.05;12.40;;;;;;;5.85;100.00;103560.91;5071377;28;20049;-29
2022/01/24 02:00:08;;;;;;;15.15;11.60;;;;;;;5.86;100.00;103557.94;5070278;28;20165;-34
2022/01/24 02:02:36;;;;;;;16.95;11.75;;;;;;;5.88;100.00;103561.38;5060913;28;20044;-30
2022/01/24 02:05:06;;;;;;;13.80;10.40;;;;;;;5.90;100.00;103560.34;5071004;28;20056;-30
2022/01/24 02:07:34;;;;;;;20.73;14.00;;;;;;;5.88;100.00;103563.28;5070406;28;20533;-32
2022/01/24 02:10:02;;;;;;;27.38;19.08;;;;;;;5.87;100.00;103565.19;5071130;28;20044;-31
2022/01/24 02:12:29;;;;;;;31.92;21.13;;;;;;;5.87;100.00;103561.56;5071076;28;20071;-30
2022/01/24 02:14:59;;;;;;;33.58;22.17;;;;;;;5.86;100.00;103563.47;5070542;28;20056;-34
2022/01/24 02:17:37;;;;;;;36.75;23.83;;;;;;;5.87;100.00;103564.31;5069416;28;20055;-31
2022/01/24 02:20:26;;;;;;;36.63;22.10;;;;;;;5.86;100.00;103557.06;5059378;28;20045;-31
2022/01/24 02:23:17;;;;;;;32.80;21.92;;;;;;;5.85;100.00;103556.22;5068314;28;20045;-30
2022/01/24 02:25:45;;;;;;;42.33;25.27;;;;;;;5.82;100.00;103556.59;5070772;28;20131;-31
2022/01/24 02:28:15;;;;;;;52.13;28.45;;;;;;;5.82;100.00;103558.53;5070361;28;20051;-31
2022/01/24 02:31:04;;;;;;;52.10;29.70;;;;;;;5.81;100.00;103554.91;5070876;28;20391;-32
2022/01/24 02:33:32;;;;;;;44.90;26.13;;;;;;;5.79;100.00;103550.66;5070797;28;20045;-29
2022/01/24 02:36:00;;;;;;;49.50;29.98;;;;;;;5.77;100.00;103547.22;5070036;28;20056;-31
2022/01/24 02:38:41;;;;;;;45.67;27.45;;;;;;;5.78;100.00;103548.94;5070403;28;20045;-31
2022/01/24 02:49:29;;;;;;;33.13;21.50;;;;;;;5.79;100.00;103550.66;5074039;28;20056;-38
2022/01/24 02:52:04;;;;;;;33.67;19.30;;;;;;;5.81;100.00;103554.91;5074645;28;20076;-30
2022/01/24 02:54:33;;;;;;;36.55;22.48;;;;;;;5.81;100.00;103542.97;5074659;28;20055;-32
2022/01/24 02:57:02;;;;;;;34.72;21.20;;;;;;;5.81;100.00;103554.91;5073660;28;20119;-31
2022/01/24 02:59:30;;;;;;;34.15;21.70;;;;;;;5.81;100.00;103554.91;5074646;28;20056;-30
2022/01/24 03:01:58;;;;;;;36.25;23.30;;;;;;;5.80;100.00;103553.19;5073772;28;20036;-32
2022/01/24 03:04:26;;;;;;;42.15;24.27;;;;;;;5.80;100.00;103550.41;5074163;28;20283;-30
2022/01/24 03:06:53;;;;;;;39.30;23.73;;;;;;;5.78;100.00;103549.78;5074312;28;20494;-30
2022/01/24 03:09:22;;;;;;;37.78;23.88;;;;;;;5.75;100.00;103547.41;5069913;28;20057;-32
2022/01/24 03:12:01;;;;;;;38.17;23.15;;;;;;;5.70;100.00;103541.59;5063975;28;20075;-33
2022/01/24 03:14:31;;;;;;;34.50;21.50;;;;;;;5.67;100.00;103542.00;5073948;28;20053;-31
2022/01/24 03:16:59;;;;;;;36.75;22.75;;;;;;;5.66;100.00;103540.28;5062486;28;20556;-30
2022/01/24 03:19:28;;;;;;;31.55;20.75;;;;;;;5.65;100.00;103537.72;5073450;28;20127;-31
2022/01/24 03:21:56;;;;;;;28.77;19.10;;;;;;;5.65;100.00;103537.72;5074209;28;20055;-30
2022/01/24 03:24:23;;;;;;;26.70;17.63;;;;;;;5.65;100.00;103538.56;5072997;28;20048;-31
2022/01/24 03:26:52;;;;;;;29.95;19.70;;;;;;;5.66;100.00;103533.91;5070781;28;20048;-30
2022/01/24 03:29:20;;;;;;;28.80;19.67;;;;;;;5.63;100.00;103537.91;5073916;28;20040;-30
2022/01/24 03:31:48;;;;;;;28.08;18.92;;;;;;;5.65;100.00;103532.19;5072866;28;20124;-33
2022/01/24 03:34:16;;;;;;;24.60;15.93;;;;;;;5.65;100.00;103526.63;5073819;28;20406;-30
2022/01/24 03:36:44;;;;;;;26.88;19.00;;;;;;;5.65;100.00;103530.28;5073956;28;20477;-30
2022/01/24 03:39:13;;;;;;;30.75;20.88;;;;;;;5.65;100.00;103526.63;5072979;28;20040;-33
2022/01/24 03:41:40;;;;;;;29.20;19.70;;;;;;;5.65;100.00;103533.03;5073618;28;20451;-30
2022/01/24 03:44:12;;;;;;;26.02;17.60;;;;;;;5.64;100.00;103525.78;5072758;28;20040;-38
2022/01/24 03:47:12;;;;;;;28.23;19.30;;;;;;;5.62;100.00;103522.34;5073841;28;20410;-34
2022/01/24 03:49:53;;;;;;;28.73;19.15;;;;;;;5.60;100.00;103524.47;5066963;28;20055;-34
2022/01/24 03:52:20;;;;;;;22.27;16.10;;;;;;;5.63;100.00;103534.28;5072991;28;20041;-32
2022/01/24 03:54:50;;;;;;;21.90;15.05;;;;;;;5.65;100.00;103537.72;5073253;28;20049;-31
2022/01/24 03:57:19;;;;;;;23.70;16.98;;;;;;;5.65;100.00;103532.19;5072850;28;20088;-35
2022/01/24 03:59:49;;;;;;;24.92;18.60;;;;;;;5.63;100.00;103529.59;5072801;28;20040;-33
2022/01/24 04:02:18;;;;;;;22.05;16.05;;;;;;;5.64;100.00;103530.47;5073819;28;20051;-30
2022/01/24 04:04:47;;;;;;;23.63;16.10;;;;;;;5.63;100.00;103534.28;5073195;28;20055;-32
2022/01/24 04:07:15;;;;;;;27.77;20.02;;;;;;;5.64;100.00;103531.31;5072448;28;20116;-30
2022/01/24 04:09:43;;;;;;;25.55;18.60;;;;;;;5.64;100.00;103531.31;5072931;28;20567;-31
2022/01/24 04:12:12;;;;;;;27.40;19.83;;;;;;;5.61;100.00;103531.72;5072543;28;20052;-32
2022/01/24 04:14:53;;;;;;;27.02;19.05;;;;;;;5.59;100.00;103520.00;5073087;28;20453;-38
2022/01/24 04:17:25;;;;;;;26.73;20.15;;;;;;;5.59;100.00;103521.94;5071912;28;20580;-33
2022/01/24 04:22:48;;;;;;;24.92;18.23;;;;;;;5.54;100.00;103526.16;5073140;28;20048;-32
2022/01/24 04:25:22;;;;;;;23.83;17.27;;;;;;;5.54;100.00;103522.53;5072824;28;20436;-30
2022/01/24 04:27:51;;;;;;;22.77;16.23;;;;;;;5.55;100.00;103521.47;5072046;28;20456;-31
2022/01/24 04:30:20;;;;;;;29.00;19.58;;;;;;;5.56;100.00;103517.63;5072596;28;20051;-39
2022/01/24 04:32:49;;;;;;;24.27;18.38;;;;;;;5.56;100.00;103520.41;5072624;28;20126;-38
2022/01/24 04:35:18;;;;;;;24.20;18.23;;;;;;;5.53;100.00;103510.59;5071709;28;20044;-39
2022/01/24 04:37:45;;;;;;;28.73;20.30;;;;;;;5.52;100.00;103503.34;5072538;28;20040;-34
2022/01/24 04:40:13;;;;;;;25.02;18.70;;;;;;;5.49;100.00;103505.66;5072193;28;20040;-34
2022/01/24 04:42:48;;;;;;;27.75;20.08;;;;;;;5.49;100.00;103505.66;5071798;28;20047;-35
2022/01/24 04:45:49;;;;;;;25.65;18.73;;;;;;;5.48;100.00;103504.78;5071630;28;20044;-32
2022/01/24 04:51:11;;;;;;;23.55;16.98;;;;;;;5.47;100.00;103508.63;5071938;28;20040;-30
2022/01/24 04:56:28;;;;;;;23.92;17.80;;;;;;;5.47;100.00;103518.84;5061108;28;20048;-31
2022/01/24 04:58:56;;;;;;;20.60;14.98;;;;;;;5.50;100.00;103512.91;5072020;28;20048;-31
2022/01/24 05:01:23;;;;;;;22.83;17.13;;;;;;;5.53;100.00;103507.81;5071182;28;20495;-35
2022/01/24 05:03:53;;;;;;;26.58;18.42;;;;;;;5.56;100.00;103502.94;5072069;28;20052;-32
2022/01/24 05:06:21;;;;;;;24.70;19.10;;;;;;;5.56;100.00;103503.78;5071631;28;20048;-31
2022/01/24 05:08:49;;;;;;;26.23;18.40;;;;;;;5.56;100.00;103500.16;5070386;28;20051;-31
2022/01/24 05:11:22;;;;;;;22.10;16.70;;;;;;;5.55;100.00;103499.31;5071663;28;20479;-30
2022/01/24 05:24:55;;;;;;;19.95;14.93;;;;;;;5.48;100.00;103509.47;5062126;28;20051;-33
2022/01/24 05:27:22;;;;;;;27.63;19.83;;;;;;;5.47;100.00;103508.63;5071541;28;20048;-30
2022/01/24 05:29:50;;;;;;;29.15;20.55;;;;;;;5.49;100.00;103509.28;5070917;28;20040;-31
2022/01/24 05:32:18;;;;;;;28.63;20.67;;;;;;;5.51;100.00;103503.53;5071659;28;20036;-32
2022/01/24 05:34:47;;;;;;;27.70;19.63;;;;;;;5.52;100.00;103508.88;5071574;28;20043;-30
2022/01/24 05:37:14;;;;;;;24.25;16.58;;;;;;;5.53;100.00;103502.28;5071209;28;20402;-31
2022/01/24 05:39:42;;;;;;;26.45;19.73;;;;;;;5.52;100.00;103497.78;5071440;28;20055;-32
2022/01/24 05:42:10;;;;;;;23.90;16.77;;;;;;;5.53;100.00;103507.81;5071324;28;20063;-31
2022/01/24 05:44:37;;;;;;;18.25;13.40;;;;;;;5.54;100.00;103509.53;5070600;28;20396;-32
2022/01/24 05:47:05;;;;;;;22.48;15.63;;;;;;;5.52;100.00;103506.09;5071378;28;20055;-32
2022/01/24 05:49:33;;;;;;;22.02;16.30;;;;;;;5.52;100.00;103511.66;5070623;28;20040;-32
2022/01/24 05:52:09;;;;;;;23.75;17.67;;;;;;;5.47;100.00;103503.06;5070504;28;20506;-33
2022/01/24 05:54:40;;;;;;;24.30;18.33;;;;;;;5.44;100.00;103509.00;5071303;28;20059;-30
2022/01/24 05:57:09;;;;;;;24.80;17.08;;;;;;;5.44;100.00;103516.47;5071444;28;20051;-32
2022/01/24 05:59:38;;;;;;;23.63;17.30;;;;;;;5.43;100.00;103517.50;5070359;28;20033;-32
2022/01/24 06:02:06;;;;;;;25.80;18.13;;;;;;;5.42;100.00;103515.78;5070844;28;20044;-34
2022/01/24 06:04:34;;;;;;;21.63;15.93;;;;;;;5.38;100.00;103520.03;5070645;28;20076;-31
2022/01/24 06:07:03;;;;;;;20.27;14.02;;;;;;;5.40;100.00;103520.66;5070145;28;20044;-32
2022/01/24 06:09:31;;;;;;;19.27;14.75;;;;;;;5.43;100.00;103523.91;5070870;28;20426;-31
2022/01/24 06:11:59;;;;;;;20.75;15.18;;;;;;;5.45;100.00;103526.47;5070321;28;20051;-32
2022/01/24 06:14:27;;;;;;;22.63;15.93;;;;;;;5.44;100.00;103530.31;5070708;28;20052;-32
2022/01/24 06:16:54;;;;;;;22.70;17.23;;;;;;;5.44;100.00;103522.00;5070604;28;20079;-38
2022/01/24 06:19:23;;;;;;;23.20;17.45;;;;;;;5.43;100.00;103520.28;5060687;28;20043;-37
2022/01/24 06:21:50;;;;;;;21.45;16.23;;;;;;;5.44;100.00;103527.53;5070455;28;20410;-39
2022/01/24 06:24:19;;;;;;;24.20;18.13;;;;;;;5.44;100.00;103525.63;5070807;28;20044;-33
2022/01/24 06:27:07;;;;;;;24.65;18.00;;;;;;;5.44;100.00;103517.31;5069716;28;20059;-30
2022/01/24 06:29:35;;;;;;;20.42;15.45;;;;;;;5.44;100.00;103520.09;5070571;28;20047;-30
2022/01/24 06:32:03;;;;;;;26.90;19.75;;;;;;;5.45;100.00;103519.03;5070957;28;20040;-30
2022/01/24 06:34:31;;;;;;;21.52;15.18;;;;;;;5.45;100.00;103527.34;5069754;28;20045;-33
2022/01/24 06:36:58;;;;;;;16.13;12.23;;;;;;;5.47;100.00;103525.22;5070519;28;20047;-32
2022/01/24 06:39:27;;;;;;;17.15;13.00;;;;;;;5.48;100.00;103529.72;5070527;28;20048;-34
2022/01/24 06:42:08;;;;;;;18.10;13.30;;;;;;;5.48;100.00;103526.09;5069751;28;20037;-33
2022/01/24 06:44:36;;;;;;;20.98;15.20;;;;;;;5.48;100.00;103523.31;5070630;28;20052;-32
2022/01/24 06:47:05;;;;;;;26.95;18.95;;;;;;;5.47;100.00;103530.75;5069739;28;20040;-32
2022/01/24 06:49:33;;;;;;;24.60;19.23;;;;;;;5.45;100.00;103529.25;5070673;28;20045;-33
2022/01/24 06:52:00;;;;;;;22.10;16.10;;;;;;;5.43;100.00;103528.59;5070482;28;20049;-31
2022/01/24 06:54:29;;;;;;;22.20;16.45;;;;;;;5.42;100.00;103536.03;5069204;28;20040;-32
2022/01/24 06:56:57;;;;;;;26.98;20.17;;;;;;;5.40;100.00;103527.06;5069488;28;20081;-31
2022/01/24 06:59:25;;;;;;;26.10;19.17;;;;;;;5.37;100.00;103533.03;5070440;28;20056;-32
2022/01/24 07:01:53;;;;;;;27.85;19.67;;;;;;;5.33;100.00;103540.00;5068887;28;20418;-33
2022/01/24 07:04:21;;;;;;;28.27;19.92;;;;;;;5.33;100.00;103540.00;5070270;28;20415;-33
2022/01/24 07:06:48;;;;;;;23.35;18.15;;;;;;;5.34;100.00;103540.88;5069584;28;20187;-31
2022/01/24 07:09:16;;;;;;;24.00;17.98;;;;;;;5.36;100.00;103549.84;5065996;28;20032;-32
2022/01/24 07:11:45;;;;;;;27.92;19.88;;;;;;;5.35;100.00;103551.75;5070235;28;20049;-35
2022/01/24 07:14:14;;;;;;;22.52;16.88;;;;;;;5.33;100.00;103550.22;5069998;28;20044;-38
2022/01/24 07:17:05;;;;;;;22.60;17.02;;;;;;;5.33;100.00;103544.69;5069033;28;20110;-37
2022/01/24 07:19:33;;;;;;;25.48;17.63;;;;;;;5.33;100.00;103536.38;5069279;28;20417;-30
2022/01/24 07:22:02;;;;;;;24.73;18.30;;;;;;;5.35;100.00;103543.44;5070158;28;20049;-32
2022/01/24 07:24:31;;;;;;;21.13;15.70;;;;;;;5.37;100.00;103546.03;5070239;28;20048;-32
2022/01/24 07:27:00;;;;;;;18.50;13.85;;;;;;;5.39;100.00;103546.69;5070161;28;20067;-32
2022/01/24 07:29:28;;;;;;;26.00;18.48;;;;;;;5.41;100.00;103547.31;5068799;28;20056;-30
2022/01/24 07:31:55;;;;;;;17.90;13.43;;;;;;;5.43;100.00;103546.06;5067271;28;20043;-30
2022/01/24 07:34:23;;;;;;;22.95;16.70;;;;;;;5.45;100.00;103555.03;5073397;28;20402;-30
2022/01/24 07:36:51;;;;;;;23.38;17.33;;;;;;;5.45;100.00;103557.78;5072908;28;20097;-31
2022/01/24 07:39:20;;;;;;;21.65;17.08;;;;;;;5.44;100.00;103553.31;5073461;28;20045;-31
2022/01/24 07:41:48;;;;;;;24.80;18.15;;;;;;;5.45;100.00;103554.16;5073016;28;20040;-31
2022/01/24 07:44:20;;;;;;;22.55;16.83;;;;;;;5.44;100.00;103550.53;5072140;28;20057;-32
2022/01/24 07:46:48;;;;;;;22.37;16.50;;;;;;;5.44;100.00;103552.44;5072618;28;20055;-31
2022/01/24 07:49:17;;;;;;;20.30;15.57;;;;;;;5.45;100.00;103554.16;5072728;28;20293;-30
2022/01/24 07:51:45;;;;;;;27.20;19.92;;;;;;;5.46;100.00;103553.97;5071098;28;20071;-33
2022/01/24 07:54:12;;;;;;;19.60;14.88;;;;;;;5.44;100.00;103558.84;5072835;28;20411;-31
2022/01/24 07:56:40;;;;;;;22.75;16.65;;;;;;;5.47;100.00;103566.75;5072667;28;20056;-32
2022/01/24 07:59:08;;;;;;;20.40;15.75;;;;;;;5.47;100.00;103555.69;5071124;28;20582;-33
2022/01/24 08:01:41;;;;;;;23.55;17.83;;;;;;;5.48;100.00;103565.72;5071972;28;20413;-30
2022/01/24 08:04:09;;;;;;;23.05;17.85;;;;;;;5.45;100.00;103565.25;5068023;28;20509;-35
2022/01/24 08:06:36;;;;;;;24.40;17.77;;;;;;;5.46;100.00;103567.81;5060147;28;20170;-37
2022/01/24 08:09:05;;;;;;;21.67;16.67;;;;;;;5.47;100.00;103565.91;5071367;28;20044;-34
2022/01/24 08:11:34;;;;;;;26.25;18.70;;;;;;;5.45;100.00;103570.78;5071384;28;20493;-34
2022/01/24 08:14:01;;;;;;;26.00;18.10;;;;;;;5.44;100.00;103578.22;5073077;28;20411;-31
2022/01/24 08:16:29;;;;;;;21.17;15.95;;;;;;;5.45;100.00;103571.66;5072735;28;20581;-35
2022/01/24 08:19:02;;;;;;;23.33;17.95;;;;;;;5.46;100.00;103570.59;5071080;28;20461;-34
2022/01/24 08:21:30;;;;;;;27.02;20.42;;;;;;;5.41;100.00;103570.31;5072518;28;20136;-32
2022/01/24 08:23:57;;;;;;;25.08;18.63;;;;;;;5.40;100.00;103578.81;5071471;28;20514;-31
2022/01/24 08:26:25;;;;;;;27.40;19.67;;;;;;;5.38;100.00;103576.28;5072172;28;20056;-31
2022/01/24 08:28:53;;;;;;;24.65;18.45;;;;;;;5.35;100.00;103576.66;5072594;28;20402;-31
2022/01/24 08:31:21;;;;;;;25.27;18.65;;;;;;;5.35;100.00;103575.81;5072188;28;20494;-33
2022/01/24 08:33:49;;;;;;;25.23;18.52;;;;;;;5.33;100.00;103576.00;5071348;28;20071;-30
2022/01/24 08:36:19;;;;;;;27.33;19.48;;;;;;;5.34;100.00;103576.88;5071104;28;20411;-30
2022/01/24 08:38:49;;;;;;;28.67;21.48;;;;;;;5.34;100.00;103579.63;5072480;28;20119;-30
2022/01/24 08:41:24;;;;;;;25.98;20.23;;;;;;;5.34;100.00;103574.97;5072024;28;20110;-35
2022/01/24 08:43:59;;;;;;;24.45;17.90;;;;;;;5.37;100.00;103579.25;5072579;28;20048;-31
2022/01/24 08:46:26;;;;;;;27.73;19.35;;;;;;;5.38;100.00;103578.19;5071779;28;20052;-31
2022/01/24 08:48:54;;;;;;;27.63;20.95;;;;;;;5.40;100.00;103576.06;5072202;28;20048;-32
2022/01/24 08:51:24;;;;;;;23.13;17.85;;;;;;;5.42;100.00;103573.94;5072477;28;20465;-30
2022/01/24 08:54:13;;;;;;;23.98;18.63;;;;;;;5.42;100.00;103580.34;5070843;28;20056;-31
2022/01/24 08:56:41;;;;;;;26.73;19.98;;;;;;;5.43;100.00;103578.44;5072227;28;20097;-32
2022/01/24 08:59:13;;;;;;;26.45;19.67;;;;;;;5.41;100.00;103575.84;5070681;28;20048;-31
2022/01/24 09:01:41;;;;;;;21.25;16.55;;;;;;;5.42;100.00;103582.25;5070654;28;20036;-31
2022/01/24 09:04:09;;;;;;;20.13;15.68;;;;;;;5.44;100.00;103588.44;5070401;28;20044;-31
2022/01/24 09:06:38;;;;;;;19.08;14.85;;;;;;;5.47;100.00;103583.38;5072024;28;20422;-30
2022/01/24 09:09:06;;;;;;;17.35;13.23;;;;;;;5.52;100.00;103580.03;5071137;28;20044;-31
2022/01/24 09:11:36;;;;;;;27.88;20.20;;;;;;;5.56;100.00;103586.03;5071880;28;20095;-30
2022/01/24 09:14:05;;;;;;;21.48;16.15;;;;;;;5.53;100.00;103578.97;5071589;28;20055;-30
2022/01/24 09:16:33;;;;;;;18.83;14.95;;;;;;;5.55;100.00;103582.41;5070822;28;20090;-35
2022/01/24 09:19:01;;;;;;;24.13;19.00;;;;;;;5.58;100.00;103583.91;5060275;28;20430;-30
2022/01/24 09:21:30;;;;;;;26.58;19.85;;;;;;;5.60;100.00;103585.41;5071622;28;20384;-30
2022/01/24 09:24:00;;;;;;;24.08;18.60;;;;;;;5.60;100.00;103582.63;5071167;28;20040;-32
2022/01/24 09:26:28;;;;;;;25.52;20.10;;;;;;;5.63;100.00;103578.63;5071406;28;20044;-30
2022/01/24 09:28:56;;;;;;;27.95;20.58;;;;;;;5.61;100.00;103584.34;5065749;28;20044;-32
2022/01/24 09:31:24;;;;;;;32.25;23.67;;;;;;;5.60;100.00;103577.09;5069065;28;20442;-30
2022/01/24 09:33:52;;;;;;;25.63;18.58;;;;;;;5.61;100.00;103587.13;5070892;28;20084;-32
2022/01/24 09:36:21;;;;;;;28.40;21.65;;;;;;;5.60;100.00;103584.53;5070363;28;20052;-33
2022/01/24 09:38:49;;;;;;;28.23;21.17;;;;;;;5.60;100.00;103579.88;5070996;28;20110;-32
2022/01/24 09:41:19;;;;;;;26.95;20.60;;;;;;;5.60;100.00;103585.41;5070308;28;20125;-32
2022/01/24 09:43:46;;;;;;;25.17;19.40;;;;;;;5.61;100.00;103589.88;5068817;28;20130;-37
2022/01/24 09:46:15;;;;;;;27.65;22.00;;;;;;;5.62;100.00;103582.44;5061608;28;20041;-38
2022/01/24 09:48:43;;;;;;;23.90;19.02;;;;;;;5.65;100.00;103587.59;5071091;28;20060;-30
2022/01/24 09:51:10;;;;;;;27.10;20.48;;;;;;;5.69;100.00;103587.00;5069988;28;20052;-32
2022/01/24 09:53:39;;;;;;;21.63;16.55;;;;;;;5.73;100.00;103591.09;5070570;28;20041;-33
2022/01/24 09:56:07;;;;;;;29.83;21.98;;;;;;;5.76;100.00;103593.47;5069869;28;20048;-32
2022/01/24 09:58:37;;;;;;;30.63;22.77;;;;;;;5.79;100.00;103594.97;5069970;28;20052;-30
2022/01/24 10:01:07;;;;;;;28.30;21.35;;;;;;;5.79;100.00;103584.75;5070428;28;20471;-34
2022/01/24 10:03:36;;;;;;;30.77;21.88;;;;;;;5.80;100.00;103578.13;5059934;28;20044;-30
2022/01/24 10:06:11;;;;;;;26.42;20.48;;;;;;;5.82;100.00;103584.31;5069160;28;20051;-32
2022/01/24 10:08:39;;;;;;;24.33;18.88;;;;;;;5.84;100.00;103578.56;5067923;28;20429;-30
2022/01/24 10:11:08;;;;;;;28.42;21.80;;;;;;;5.85;100.00;103583.91;5067889;28;20135;-31
2022/01/24 10:16:29;;;;;;;26.00;19.10;;;;;;;5.88;100.00;103582.66;5069690;28;20485;-31
2022/01/24 10:19:10;;;;;;;24.20;18.77;;;;;;;5.90;100.00;103593.59;5069468;28;20040;-30
2022/01/24 10:22:00;;;;;;;24.38;18.88;;;;;;;5.87;100.00;103594.81;5070082;28;20040;-30
2022/01/24 10:24:38;;;;;;;23.93;18.43;;;;;;;5.90;100.00;103591.66;5070074;28;20414;-30
2022/01/24 10:27:09;;;;;;;28.67;20.80;;;;;;;5.94;100.00;103598.53;5067067;28;20287;-31
2022/01/24 10:29:44;;;;;;;25.35;19.27;;;;;;;5.98;100.00;103596.22;5069288;28;20058;-30
2022/01/24 10:32:31;;;;;;;23.15;17.55;;;;;;;5.99;100.00;103587.72;5067899;28;20047;-31
2022/01/24 10:35:22;;;;;;;25.33;19.45;;;;;;;6.01;100.00;103595.78;5067834;28;20048;-30
2022/01/24 10:37:54;;;;;;;24.88;19.52;;;;;;;6.00;100.00;103585.75;5065724;28;20442;-31
2022/01/24 10:40:34;;;;;;;32.25;23.67;;;;;;;6.03;100.00;103597.31;5068470;28;20046;-32
2022/01/24 10:43:16;;;;;;;22.48;17.25;;;;;;;6.04;100.00;103593.47;5069532;28;20040;-36
2022/01/24 10:45:47;;;;;;;29.00;21.80;;;;;;;6.08;100.00;103593.94;5067247;28;20080;-34
2022/01/24 10:48:20;;;;;;;25.55;19.98;;;;;;;6.07;100.00;103592.22;5068727;28;20048;-36
2022/01/24 10:50:48;;;;;;;23.20;17.10;;;;;;;6.08;100.00;103588.38;5069240;28;20048;-33
2022/01/24 10:53:17;;;;;;;22.48;17.95;;;;;;;6.10;100.00;103592.69;5067293;28;20073;-30
2022/01/24 10:55:51;;;;;;;27.95;22.80;;;;;;;6.13;100.00;103585.88;5069276;28;20040;-32
2022/01/24 10:58:19;;;;;;;28.33;22.70;;;;;;;6.13;100.00;103580.34;5069188;28;20060;-31
2022/01/24 11:00:48;;;;;;;24.33;18.40;;;;;;;6.14;100.00;103573.72;5068269;28;20624;-30
2022/01/24 11:03:18;;;;;;;20.45;16.77;;;;;;;6.18;100.00;103569.50;5067890;28;20399;-30
2022/01/24 11:05:47;;;;;;;19.65;16.17;;;;;;;6.21;100.00;103571.84;5069185;28;20131;-31
2022/01/24 11:08:17;;;;;;;25.45;18.65;;;;;;;6.20;100.00;103573.75;5070428;28;20391;-32
2022/01/24 11:10:47;;;;;;;21.77;17.60;;;;;;;6.18;100.00;103578.66;5072743;28;20051;-30
2022/01/24 11:13:18;;;;;;;26.30;19.75;;;;;;;6.19;100.00;103573.97;5073123;28;20054;-30
2022/01/24 11:15:56;;;;;;;27.92;21.67;;;;;;;6.19;100.00;103579.53;5072065;28;20604;-30
2022/01/24 11:18:30;;;;;;;22.70;17.33;;;;;;;6.18;100.00;103587.00;5072817;28;20049;-33
2022/01/24 11:21:06;;;;;;;18.13;15.18;;;;;;;6.19;100.00;103585.91;5072717;28;20050;-31
2022/01/24 11:23:39;;;;;;;18.92;15.00;;;;;;;6.24;100.00;103588.06;5072130;28;20413;-36
2022/01/24 11:26:07;;;;;;;18.75;15.38;;;;;;;6.28;100.00;103581.06;5072417;28;20481;-37
2022/01/24 11:28:35;;;;;;;17.25;13.77;;;;;;;6.30;100.00;103584.50;5070882;28;20058;-39
2022/01/24 11:31:12;;;;;;;17.83;14.38;;;;;;;6.33;100.00;103578.53;5069115;28;20656;-32
2022/01/24 11:33:43;;;;;;;15.07;12.23;;;;;;;6.36;100.00;103585.59;5062153;28;20045;-34
2022/01/24 11:36:11;;;;;;;24.27;18.80;;;;;;;6.34;100.00;103571.06;5071617;28;20487;-32
2022/01/24 11:38:42;;;;;;;22.55;18.02;;;;;;;6.33;100.00;103573.00;5072545;28;20048;-32
2022/01/24 11:41:20;;;;;;;23.02;17.73;;;;;;;6.34;100.00;103571.94;5072499;28;20075;-33
2022/01/24 11:43:51;;;;;;;18.70;15.30;;;;;;;6.31;100.00;103569.56;5071805;28;20098;-31
2022/01/24 11:46:37;;;;;;;17.57;14.67;;;;;;;6.25;100.00;103567.59;5070160;28;20070;-30
2022/01/24 11:49:08;;;;;;;14.25;12.30;;;;;;;6.20;100.00;103564.56;5061747;28;20084;-32
2022/01/24 11:51:37;;;;;;;14.05;11.55;;;;;;;6.22;100.00;103555.00;5070478;28;20075;-32
2022/01/24 11:54:30;;;;;;;13.00;11.20;;;;;;;6.30;100.00;103561.44;5072475;28;20131;-34
2022/01/24 11:57:35;;;;;;;10.88;8.70;;;;;;;6.35;100.00;103559.78;5068655;28;20036;-34
2022/01/24 12:00:19;;;;;;;10.30;8.35;;;;;;;6.43;100.00;103558.72;5072191;28;20488;-31
2022/01/24 12:02:50;;;;;;;11.15;9.95;;;;;;;6.47;100.00;103549.81;5062719;28;20056;-30
2022/01/24 12:05:20;;;;;;;11.52;9.73;;;;;;;6.50;100.00;103543.84;5071262;28;20040;-31
2022/01/24 12:07:53;;;;;;;15.95;13.07;;;;;;;6.50;100.00;103541.06;5072294;28;20051;-32
2022/01/24 12:10:46;;;;;;;16.20;12.48;;;;;;;6.54;100.00;103533.19;5072057;28;20048;-30
2022/01/24 12:13:19;;;;;;;17.38;13.95;;;;;;;6.52;100.00;103541.72;5063454;28;20590;-32
2022/01/24 12:15:57;;;;;;;16.65;13.95;;;;;;;6.53;100.00;103546.22;5072073;28;20056;-30
2022/01/24 12:19:01;;;;;;;15.05;13.15;;;;;;;6.52;100.00;103533.41;5070897;28;20071;-31
2022/01/24 12:21:32;;;;;;;11.95;10.57;;;;;;;6.48;100.00;103532.09;5062988;28;20429;-30
2022/01/24 12:24:13;;;;;;;16.08;12.75;;;;;;;6.50;100.00;103531.91;5071916;28;20494;-34
2022/01/24 12:27:04;;;;;;;14.32;12.15;;;;;;;6.50;100.00;103538.31;5063740;28;20131;-32
2022/01/24 12:29:33;;;;;;;;;;;;;;;6.49;100.00;103538.50;5072044;28;20378;-35
2022/01/24 12:32:03;;;;;;;10.65;8.90;;;;;;;6.51;100.00;103541.94;5070775;28;19920;-34
2022/01/24 12:34:39;;;;;;;12.73;11.00;;;;;;;6.60;100.00;103545.38;5071828;28;20057;-36